Time;durP1;ratioP1;P1;durP2;ratioP2;P2;SDS_P1;SDS_P2;PMS_P1;PMS_P2;Temp;Humidity;BMP_temperature;BMP_pressure;BME280_temperature;BME280_humidity;BME280_pressure;Samples;Min_cycle;Max_cycle;Signal;HPM_P1;HPM_P2
2022/07/31 00:01:56;;;;;;;8.18;5.00;;;;;;;18.32;84.39;95240.25;1723434;83;21563;-65
2022/07/31 00:04:22;;;;;;;6.67;5.50;;;;;;;18.22;84.50;95246.59;1716202;83;21078;-65
2022/07/31 00:06:50;;;;;;;6.55;5.20;;;;;;;18.18;84.56;95241.49;1716217;83;21000;-65
2022/07/31 00:09:17;;;;;;;8.55;4.87;;;;;;;18.16;84.83;95247.76;1721889;83;21038;-65
2022/07/31 00:11:45;;;;;;;7.03;5.08;;;;;;;18.08;84.95;95253.98;1732919;83;21038;-65
2022/07/31 00:14:12;;;;;;;8.30;5.70;;;;;;;18.11;85.25;95247.63;1720353;83;21027;-65
2022/07/31 00:16:38;;;;;;;6.10;5.25;;;;;;;18.16;85.28;95245.09;1714979;83;21013;-65
2022/07/31 00:19:05;;;;;;;9.00;4.87;;;;;;;18.19;84.67;95252.55;1733700;82;20991;-65
2022/07/31 00:21:32;;;;;;;9.28;5.20;;;;;;;18.18;85.20;95257.52;1732703;83;21035;-65
2022/07/31 00:23:59;;;;;;;5.85;5.35;;;;;;;18.09;84.00;95254.41;1716504;84;20983;-65
2022/07/31 00:26:25;;;;;;;7.47;5.30;;;;;;;18.00;84.06;95258.88;1724770;82;20988;-65
2022/07/31 00:28:52;;;;;;;8.65;5.42;;;;;;;17.94;85.11;95257.86;1716495;83;21505;-65
2022/07/31 00:31:20;;;;;;;8.53;4.97;;;;;;;18.02;85.73;95248.14;1716442;83;21019;-65
2022/07/31 00:33:46;;;;;;;7.00;5.17;;;;;;;18.08;85.61;95255.33;1716409;83;21000;-65
2022/07/31 00:36:13;;;;;;;8.48;5.40;;;;;;;18.09;85.28;95251.73;1724424;83;21031;-65
2022/07/31 00:38:40;;;;;;;7.72;5.45;;;;;;;18.03;85.49;95251.19;1716368;84;21383;-65
2022/07/31 00:41:08;;;;;;;9.60;6.08;;;;;;;18.07;85.64;95249.61;1719664;83;21018;-65
2022/07/31 00:43:35;;;;;;;9.68;5.15;;;;;;;18.13;85.19;95245.27;1729029;83;20992;-65
2022/07/31 00:46:01;;;;;;;7.15;5.37;;;;;;;18.16;85.19;95246.91;1716185;83;21023;-65
2022/07/31 00:48:29;;;;;;;9.15;6.17;;;;;;;18.14;85.10;95251.02;1720574;83;21027;-65
2022/07/31 00:50:56;;;;;;;13.18;5.67;;;;;;;18.18;85.15;95254.36;1726209;83;21074;-65
2022/07/31 00:53:24;;;;;;;6.72;5.40;;;;;;;18.19;84.75;95253.89;1715800;83;21487;-65
2022/07/31 00:55:51;;;;;;;6.85;6.12;;;;;;;18.18;84.78;95261.52;1716226;83;21012;-65
2022/07/31 00:58:18;;;;;;;7.37;6.50;;;;;;;18.11;84.90;95255.63;1735931;82;21043;-65
2022/07/31 01:00:46;;;;;;;8.98;7.65;;;;;;;18.10;84.74;95253.92;1727838;83;21015;-65
2022/07/31 01:03:13;;;;;;;9.65;7.22;;;;;;;18.02;84.83;95250.33;1724411;83;21031;-65
2022/07/31 01:05:40;;;;;;;7.42;6.53;;;;;;;18.03;84.95;95241.84;1723647;83;21038;-65
2022/07/31 01:08:07;;;;;;;7.55;6.78;;;;;;;17.95;84.90;95241.77;1724143;82;21103;-65
2022/07/31 01:11:08;;;;;;;8.13;6.58;;;;;;;17.90;85.04;95239.82;1716207;83;21051;-65
2022/07/31 01:13:54;;;;;;;10.08;6.90;;;;;;;17.86;84.71;95239.58;1714399;83;21049;-65
2022/07/31 01:16:25;;;;;;;6.97;6.28;;;;;;;17.78;85.78;95230.23;1730417;83;21083;-65
2022/07/31 01:18:55;;;;;;;9.63;6.35;;;;;;;17.76;86.08;95234.30;1716197;83;21071;-65
2022/07/31 01:21:31;;;;;;;11.05;6.97;;;;;;;17.73;86.83;95233.99;1723530;83;21052;-65
2022/07/31 01:24:23;;;;;;;9.58;6.72;;;;;;;17.78;86.58;95231.09;1715834;84;21068;-65
2022/07/31 01:27:05;;;;;;;8.70;6.10;;;;;;;17.85;86.60;95229.86;1685092;83;21011;-65
2022/07/31 01:29:43;;;;;;;8.60;5.47;;;;;;;17.89;86.31;95225.20;1723217;83;21532;-65
2022/07/31 01:32:18;;;;;;;6.17;5.58;;;;;;;17.94;86.16;95230.72;1718834;83;21130;-65
2022/07/31 01:35:10;;;;;;;7.03;6.10;;;;;;;17.97;85.45;95234.14;1715238;84;21043;-65
2022/07/31 01:37:50;;;;;;;7.97;5.58;;;;;;;18.00;85.30;95234.86;1687029;84;21030;-65
2022/07/31 01:40:31;;;;;;;7.65;5.35;;;;;;;18.02;85.02;95230.78;1723396;83;20991;-65
2022/07/31 01:43:25;;;;;;;8.90;5.87;;;;;;;17.97;85.09;95226.13;1721627;82;21076;-65
2022/07/31 01:45:55;;;;;;;8.80;5.83;;;;;;;17.86;84.70;95215.56;1732077;82;21034;-65
2022/07/31 01:48:23;;;;;;;8.03;6.30;;;;;;;17.76;85.50;95210.77;1685137;84;21012;-65
2022/07/31 01:50:54;;;;;;;9.38;6.42;;;;;;;17.74;85.29;95211.72;1726204;82;20994;-64
2022/07/31 01:53:24;;;;;;;10.98;6.72;;;;;;;17.77;85.51;95221.37;1723913;83;21062;-64
2022/07/31 01:55:54;;;;;;;8.18;7.17;;;;;;;17.72;85.09;95221.61;1730014;82;21034;-65
2022/07/31 01:58:23;;;;;;;8.35;6.15;;;;;;;17.70;85.80;95226.63;1716338;84;21023;-65
2022/07/31 02:00:55;;;;;;;8.25;7.08;;;;;;;17.78;86.22;95220.89;1716217;83;21031;-65
2022/07/31 02:03:24;;;;;;;10.03;7.92;;;;;;;17.84;86.08;95225.48;1724553;83;21066;-65
2022/07/31 02:05:53;;;;;;;8.95;7.33;;;;;;;17.86;85.59;95220.04;1714936;83;21043;-65
2022/07/31 02:08:22;;;;;;;9.90;7.75;;;;;;;17.88;85.76;95220.34;1732218;83;21481;-65
2022/07/31 02:10:49;;;;;;;9.58;7.67;;;;;;;17.89;85.50;95222.09;1716164;83;20995;-65
2022/07/31 02:13:17;;;;;;;8.80;7.03;;;;;;;17.84;85.04;95220.14;1724420;82;21035;-65
2022/07/31 02:15:46;;;;;;;10.65;7.83;;;;;;;17.78;85.64;95224.42;1716390;84;21082;-65
2022/07/31 02:18:15;;;;;;;11.45;6.80;;;;;;;17.76;86.13;95223.63;1715876;83;21033;-65
2022/07/31 02:20:50;;;;;;;8.30;7.37;;;;;;;17.69;85.17;95222.26;1728914;82;21047;-65
2022/07/31 02:23:18;;;;;;;9.50;7.00;;;;;;;17.60;85.36;95221.39;1715948;83;21558;-65
2022/07/31 02:25:47;;;;;;;8.63;6.20;;;;;;;17.58;86.73;95229.46;1727662;83;21007;-65
2022/07/31 02:28:21;;;;;;;9.20;6.17;;;;;;;17.62;86.39;95222.18;1715937;83;21042;-65
2022/07/31 02:30:48;;;;;;;10.38;5.92;;;;;;;17.62;87.20;95226.19;1726497;83;21064;-65
2022/07/31 02:33:22;;;;;;;4.65;3.20;;;;;;;17.67;87.27;95220.98;1724517;82;21489;-65
2022/07/31 02:35:53;;;;;;;3.72;2.90;;;;;;;17.71;86.42;95222.56;1719370;83;20995;-65
2022/07/31 02:38:23;;;;;;;4.58;2.60;;;;;;;17.72;86.09;95222.94;1720113;83;21027;-64
2022/07/31 02:40:53;;;;;;;7.58;2.80;;;;;;;17.73;85.98;95218.46;1724676;82;21105;-64
2022/07/31 02:43:20;;;;;;;2.08;1.55;;;;;;;17.74;86.20;95210.39;1716021;83;20995;-64
2022/07/31 02:45:47;;;;;;;2.75;1.30;;;;;;;17.76;85.71;95214.77;1725281;82;21003;-64
2022/07/31 02:48:15;;;;;;;3.22;1.45;;;;;;;17.72;85.57;95208.75;1716555;83;21065;-65
2022/07/31 02:50:44;;;;;;;2.70;1.65;;;;;;;17.69;85.36;95212.44;1726097;82;21015;-64
2022/07/31 02:53:11;;;;;;;3.90;1.57;;;;;;;17.66;85.15;95220.58;1723708;83;21110;-64
2022/07/31 02:55:39;;;;;;;2.42;1.50;;;;;;;17.62;85.05;95211.03;1731897;83;21042;-64
2022/07/31 02:58:07;;;;;;;1.92;1.07;;;;;;;17.59;84.85;95216.98;1716678;83;21060;-65
2022/07/31 03:00:34;;;;;;;1.85;1.20;;;;;;;17.50;84.80;95213.86;1716134;83;21086;-65
2022/07/31 03:03:02;;;;;;;2.17;1.67;;;;;;;17.47;85.14;95214.50;1718630;83;20994;-64
2022/07/31 03:05:30;;;;;;;2.00;1.32;;;;;;;17.45;85.07;95213.23;1718690;83;21035;-64
2022/07/31 03:07:57;;;;;;;4.67;2.50;;;;;;;17.46;85.34;95208.31;1716238;84;21040;-64
2022/07/31 03:10:24;;;;;;;5.33;2.70;;;;;;;17.51;85.82;95212.05;1720045;83;21053;-64
2022/07/31 03:13:05;;;;;;;3.58;2.60;;;;;;;17.52;85.70;95211.12;1724108;83;21169;-65
2022/07/31 03:15:33;;;;;;;4.25;2.40;;;;;;;17.56;85.19;95210.48;1726242;83;21054;-64
2022/07/31 03:18:00;;;;;;;4.62;2.75;;;;;;;17.56;85.04;95210.48;1716370;83;21019;-64
2022/07/31 03:20:29;;;;;;;4.28;2.55;;;;;;;17.56;84.90;95212.66;1714513;84;21020;-65
2022/07/31 03:22:57;;;;;;;5.15;2.87;;;;;;;17.55;85.16;95210.95;1724485;82;21022;-65
2022/07/31 03:25:24;;;;;;;8.10;3.10;;;;;;;17.56;85.69;95206.00;1727653;83;21635;-65
2022/07/31 03:27:52;;;;;;;7.08;3.47;;;;;;;17.47;86.15;95194.49;1724489;82;21059;-65
2022/07/31 03:30:23;;;;;;;5.72;2.90;;;;;;;17.48;86.44;95209.06;1717333;83;21022;-65
2022/07/31 03:32:47;;;;;;;4.05;3.08;;;;;;;17.51;86.17;95202.70;1730082;82;20991;-64
2022/07/31 03:35:14;;;;;;;6.10;2.87;;;;;;;17.46;85.65;95204.75;1715552;83;21091;-65
2022/07/31 03:37:41;;;;;;;3.72;3.17;;;;;;;17.40;85.70;95212.61;1724382;83;20991;-65
2022/07/31 03:40:09;;;;;;;3.17;2.87;;;;;;;17.46;86.40;95209.64;1716694;83;21052;-64
2022/07/31 03:42:37;;;;;;;3.62;2.50;;;;;;;17.55;86.31;95211.43;1728686;83;21075;-65
2022/07/31 03:45:06;;;;;;;4.92;2.50;;;;;;;17.56;86.33;95208.66;1715508;83;21086;-64
2022/07/31 03:47:33;;;;;;;5.05;2.70;;;;;;;17.55;86.23;95210.95;1724594;83;21079;-65
2022/07/31 03:50:01;;;;;;;5.20;2.90;;;;;;;17.58;85.92;95219.27;1725491;83;21047;-64
2022/07/31 03:52:31;;;;;;;3.52;2.50;;;;;;;17.55;86.30;95218.10;1725745;83;21031;-65
2022/07/31 03:54:58;;;;;;;4.53;2.40;;;;;;;17.55;85.84;95214.95;1716355;84;21019;-65
2022/07/31 03:57:27;;;;;;;5.47;2.77;;;;;;;17.49;85.92;95216.63;1724670;82;21015;-65
2022/07/31 03:59:56;;;;;;;4.37;2.17;;;;;;;17.55;86.44;95214.95;1722518;83;21081;-65
2022/07/31 04:02:28;;;;;;;2.50;2.30;;;;;;;17.58;86.15;95215.27;1727579;83;21556;-65
2022/07/31 04:05:07;;;;;;;5.42;2.47;;;;;;;17.51;85.59;95222.27;1714970;83;21521;-65
2022/07/31 04:07:33;;;;;;;3.50;2.67;;;;;;;17.56;86.42;95227.34;1724295;82;21129;-65
2022/07/31 04:10:01;;;;;;;7.78;2.75;;;;;;;17.64;86.56;95216.27;1724059;83;21027;-65
2022/07/31 04:12:30;;;;;;;2.62;1.70;;;;;;;17.70;86.07;95211.96;1716064;83;21031;-65
2022/07/31 04:14:57;;;;;;;3.20;1.40;;;;;;;17.71;85.92;95215.01;1725870;82;21492;-65
2022/07/31 04:17:23;;;;;;;2.08;1.17;;;;;;;17.77;85.98;95212.03;1725076;83;21034;-65
2022/07/31 04:19:50;;;;;;;2.27;1.20;;;;;;;17.83;85.82;95221.06;1726617;83;21042;-65
2022/07/31 04:22:17;;;;;;;2.65;1.20;;;;;;;17.83;85.32;95212.20;1716476;84;21491;-65
2022/07/31 04:24:44;;;;;;;3.27;1.35;;;;;;;17.87;85.20;95213.78;1719365;83;21035;-65
2022/07/31 04:27:29;;;;;;;2.20;1.10;;;;;;;17.88;84.84;95214.16;1724195;83;21088;-65
2022/07/31 04:29:57;;;;;;;4.15;1.00;;;;;;;17.85;84.72;95212.99;1719201;83;21066;-65
2022/07/31 04:45:41;;;;;;;4.55;1.10;;;;;;;18.62;80.37;95199.42;1808856;78;22802;-64
2022/07/31 04:48:10;;;;;;;2.00;1.27;;;;;;;18.35;81.42;95202.71;1779834;81;21023;-65
2022/07/31 04:50:38;;;;;;;1.50;1.22;;;;;;;18.25;82.07;95201.50;1780194;81;21002;-65
2022/07/31 04:53:05;;;;;;;1.62;1.20;;;;;;;18.20;82.36;95205.75;1779658;81;21063;-65
2022/07/31 04:55:34;;;;;;;2.45;1.40;;;;;;;18.15;82.49;95199.80;1779498;81;21003;-64
2022/07/31 04:58:01;;;;;;;3.17;1.40;;;;;;;18.11;82.62;95200.90;1780136;81;21488;-65
2022/07/31 05:00:28;;;;;;;1.77;1.57;;;;;;;17.99;82.55;95201.56;1780076;81;21007;-65
2022/07/31 05:02:55;;;;;;;1.92;1.60;;;;;;;17.78;83.40;95200.41;1779784;81;21063;-65
2022/07/31 05:05:22;;;;;;;2.35;1.42;;;;;;;17.63;83.50;95203.88;1780342;81;20963;-64
2022/07/31 05:07:49;;;;;;;1.80;1.60;;;;;;;17.50;84.66;95202.33;1779793;80;21019;-65
2022/07/31 05:13:05;;;;;;;2.45;2.17;;;;;;;17.42;85.32;95206.73;1780053;81;21031;-65
2022/07/31 05:15:33;;;;;;;3.25;2.30;;;;;;;17.41;85.62;95208.13;1780053;81;21464;-65
2022/07/31 05:18:00;;;;;;;2.72;2.52;;;;;;;17.38;86.36;95205.63;1780217;80;20967;-64
2022/07/31 05:20:31;;;;;;;2.95;2.60;;;;;;;17.37;86.75;95205.25;1775320;81;21022;-65
2022/07/31 05:23:16;;;;;;;4.25;2.15;;;;;;;17.41;86.84;95210.35;1779895;81;21011;-64
2022/07/31 05:26:04;;;;;;;3.27;2.65;;;;;;;17.49;87.19;95203.28;1778633;81;20975;-65
2022/07/31 05:28:30;;;;;;;3.75;3.20;;;;;;;17.54;87.02;95199.91;1779832;80;21460;-65
2022/07/31 05:30:59;;;;;;;4.33;3.25;;;;;;;17.59;87.14;95200.53;1780245;81;20995;-64
2022/07/31 05:33:27;;;;;;;2.83;2.57;;;;;;;17.66;86.81;95197.91;1779974;81;21061;-64
2022/07/31 05:35:55;;;;;;;5.95;3.30;;;;;;;17.76;86.74;95194.76;1780047;80;21026;-65
2022/07/31 05:38:22;;;;;;;3.55;2.90;;;;;;;17.91;87.27;95197.97;1780251;80;21054;-65
2022/07/31 05:40:51;;;;;;;3.98;2.83;;;;;;;18.05;87.11;95195.91;1777416;81;20991;-65
2022/07/31 05:43:32;;;;;;;2.92;2.72;;;;;;;18.22;86.69;95198.97;1777746;80;21011;-66
2022/07/31 05:46:04;;;;;;;3.45;3.08;;;;;;;18.40;86.39;95201.98;1784621;80;21055;-65
2022/07/31 05:48:32;;;;;;;3.60;2.72;;;;;;;18.47;85.47;95195.35;1784866;80;21053;-65
2022/07/31 05:50:59;;;;;;;4.62;2.98;;;;;;;18.57;85.35;95195.22;1784689;80;21019;-65
2022/07/31 05:53:26;;;;;;;3.80;2.72;;;;;;;18.79;85.04;95194.88;1784922;80;21054;-65
2022/07/31 05:56:11;;;;;;;4.15;2.95;;;;;;;18.95;85.25;95193.54;1784592;80;20999;-65
2022/07/31 05:58:44;;;;;;;3.25;2.58;;;;;;;19.11;83.89;95188.63;1784295;80;20999;-65
2022/07/31 06:01:11;;;;;;;4.33;2.40;;;;;;;19.22;82.94;95192.86;1785059;80;21014;-65
2022/07/31 06:03:39;;;;;;;2.70;2.50;;;;;;;19.28;79.83;95190.29;1784961;80;20975;-65
2022/07/31 06:06:07;;;;;;;2.72;2.52;;;;;;;19.46;81.91;95194.08;1783953;80;21031;-65
2022/07/31 06:08:34;;;;;;;3.80;2.47;;;;;;;19.64;81.27;95192.11;1785092;80;21484;-65
2022/07/31 06:11:03;;;;;;;5.70;2.75;;;;;;;19.81;79.94;95187.59;1784769;80;20982;-65
2022/07/31 06:13:30;;;;;;;4.72;2.90;;;;;;;19.98;76.99;95195.45;1784916;80;21512;-65
2022/07/31 06:15:58;;;;;;;2.80;2.60;;;;;;;20.01;75.35;95199.27;1784947;80;20959;-65
2022/07/31 06:18:26;;;;;;;2.98;2.77;;;;;;;19.93;72.73;95202.88;1785234;80;20999;-65
2022/07/31 06:20:52;;;;;;;3.12;2.87;;;;;;;20.00;73.04;95206.05;1785000;80;21030;-65
2022/07/31 06:23:19;;;;;;;2.85;2.65;;;;;;;19.98;69.14;95199.92;1784980;80;21011;-65
2022/07/31 06:25:46;;;;;;;3.42;2.77;;;;;;;19.98;71.41;95210.17;1784800;80;20995;-65
2022/07/31 06:28:13;;;;;;;3.72;3.10;;;;;;;19.92;66.33;95210.53;1785214;80;21022;-65
2022/07/31 06:30:40;;;;;;;3.37;3.05;;;;;;;19.92;70.58;95201.64;1784869;80;20978;-65
2022/07/31 06:33:07;;;;;;;3.40;3.10;;;;;;;19.97;72.07;95212.45;1784983;80;21007;-65
2022/07/31 06:35:35;;;;;;;2.98;2.77;;;;;;;20.01;70.97;95210.47;1785071;80;21038;-65
2022/07/31 06:38:12;;;;;;;3.80;3.33;;;;;;;20.01;68.74;95219.34;1781873;80;21026;-65
2022/07/31 06:40:40;;;;;;;3.20;2.90;;;;;;;20.00;67.56;95215.41;1780951;80;21065;-65
2022/07/31 06:43:18;;;;;;;3.50;3.08;;;;;;;19.96;65.88;95218.77;1757448;80;21026;-65
2022/07/31 06:46:03;;;;;;;5.22;3.50;;;;;;;20.00;66.87;95216.27;1784684;80;21504;-65
2022/07/31 06:48:48;;;;;;;3.45;2.98;;;;;;;20.02;68.67;95218.38;1784791;80;21046;-65
2022/07/31 06:51:15;;;;;;;4.10;3.05;;;;;;;20.06;68.00;95219.07;1784836;80;21598;-65
2022/07/31 06:53:43;;;;;;;4.53;4.12;;;;;;;19.98;64.14;95215.53;1784462;80;21026;-65
2022/07/31 06:56:10;;;;;;;4.78;3.80;;;;;;;19.93;62.38;95209.56;1785152;80;21048;-65
2022/07/31 06:58:37;;;;;;;5.03;4.20;;;;;;;20.06;63.88;95203.00;1784859;80;21049;-65
2022/07/31 07:01:04;;;;;;;4.62;3.80;;;;;;;20.25;65.85;95206.72;1785026;80;21496;-65
2022/07/31 07:03:30;;;;;;;3.83;3.42;;;;;;;20.38;66.31;95213.02;1785039;80;21007;-65
2022/07/31 07:05:57;;;;;;;4.10;3.67;;;;;;;20.51;64.74;95205.94;1784965;80;20998;-65
2022/07/31 07:08:24;;;;;;;5.20;4.15;;;;;;;20.51;65.87;95207.73;1784996;80;21006;-65
2022/07/31 07:10:51;;;;;;;4.03;3.72;;;;;;;20.60;63.73;95213.03;1784611;80;21010;-65
2022/07/31 07:13:22;;;;;;;5.42;3.80;;;;;;;20.73;61.75;95197.38;1783530;80;21051;-65
2022/07/31 07:15:49;;;;;;;4.20;3.42;;;;;;;20.83;60.88;95191.43;1784897;80;21054;-65
2022/07/31 07:18:17;;;;;;;3.80;3.50;;;;;;;20.88;59.70;95195.52;1784953;80;21476;-65
2022/07/31 07:20:50;;;;;;;4.60;3.52;;;;;;;20.70;56.86;95187.35;1785063;80;21082;-65
2022/07/31 07:23:18;;;;;;;3.72;3.42;;;;;;;20.86;58.15;95188.05;1784883;80;21058;-65
2022/07/31 07:25:50;;;;;;;4.50;3.85;;;;;;;21.11;59.96;95183.27;1783842;80;21057;-65
2022/07/31 07:28:17;;;;;;;3.92;3.60;;;;;;;21.26;56.37;95185.90;1784801;80;20998;-65
2022/07/31 07:30:44;;;;;;;4.55;3.12;;;;;;;21.25;56.84;95179.67;1784885;80;21058;-65
2022/07/31 07:33:12;;;;;;;3.40;3.10;;;;;;;21.24;56.05;95183.30;1784927;80;21026;-65
2022/07/31 07:35:39;;;;;;;3.77;3.47;;;;;;;21.25;57.27;95182.85;1784943;80;21013;-65
2022/07/31 07:38:07;;;;;;;3.75;3.45;;;;;;;21.05;55.53;95172.11;1784264;80;21105;-65
2022/07/31 07:40:35;;;;;;;3.77;3.50;;;;;;;20.98;55.11;95185.05;1784459;80;21473;-65
2022/07/31 07:43:02;;;;;;;4.50;3.60;;;;;;;20.85;55.44;95178.79;1784899;80;21432;-65
2022/07/31 07:45:29;;;;;;;3.87;3.58;;;;;;;20.69;55.56;95176.26;1784941;80;21055;-65
2022/07/31 07:47:56;;;;;;;3.52;3.22;;;;;;;20.69;56.69;95175.77;1784889;80;21026;-65
2022/07/31 07:50:23;;;;;;;3.65;3.35;;;;;;;20.59;56.51;95172.42;1785065;80;21015;-65
2022/07/31 07:52:57;;;;;;;3.60;3.30;;;;;;;20.52;57.78;95176.83;1781165;80;21023;-65
2022/07/31 07:55:38;;;;;;;3.77;3.42;;;;;;;20.54;57.64;95170.04;1746539;80;21007;-65
2022/07/31 07:58:23;;;;;;;3.87;3.58;;;;;;;20.48;58.18;95183.33;1784950;80;21495;-65
2022/07/31 08:01:04;;;;;;;4.17;3.75;;;;;;;20.48;57.90;95186.01;1747005;80;21480;-65
2022/07/31 08:03:32;;;;;;;3.80;3.50;;;;;;;20.38;58.21;95176.84;1758701;80;21006;-65
2022/07/31 08:05:59;;;;;;;3.85;3.55;;;;;;;20.38;58.10;95185.36;1785047;80;21046;-65
2022/07/31 08:08:26;;;;;;;6.40;4.30;;;;;;;20.33;59.72;95185.65;1784779;80;21093;-65
2022/07/31 08:11:02;;;;;;;4.10;3.80;;;;;;;20.18;60.68;95190.16;1780602;80;21014;-65
2022/07/31 08:13:43;;;;;;;5.40;4.75;;;;;;;20.19;61.51;95191.05;1783621;80;21027;-65
2022/07/31 08:16:24;;;;;;;4.70;4.20;;;;;;;20.09;61.80;95190.75;1733253;80;21050;-65
2022/07/31 08:18:53;;;;;;;4.33;4.00;;;;;;;20.17;63.57;95185.77;1784879;80;20999;-65
2022/07/31 08:21:20;;;;;;;4.72;4.05;;;;;;;20.27;62.78;95193.60;1785129;80;20947;-65
2022/07/31 08:23:47;;;;;;;5.20;4.62;;;;;;;20.40;62.80;95182.97;1785024;80;20963;-65
2022/07/31 08:26:17;;;;;;;6.05;4.85;;;;;;;20.58;63.07;95185.45;1784767;80;21034;-65
2022/07/31 08:28:44;;;;;;;5.10;3.87;;;;;;;20.90;63.38;95189.58;1784979;80;20958;-65
2022/07/31 08:31:11;;;;;;;5.65;4.90;;;;;;;21.16;61.34;95176.26;1784524;80;21015;-65
2022/07/31 08:33:39;;;;;;;5.25;4.72;;;;;;;21.33;61.60;95188.55;1783073;80;21539;-65
2022/07/31 08:36:09;;;;;;;5.10;4.70;;;;;;;21.43;61.54;95182.97;1785121;80;21003;-65
2022/07/31 08:38:37;;;;;;;5.20;4.75;;;;;;;21.49;61.39;95182.53;1785187;80;21003;-65
2022/07/31 08:41:13;;;;;;;5.45;4.62;;;;;;;21.51;61.66;95185.13;1780628;80;21046;-65
2022/07/31 08:43:40;;;;;;;5.30;4.65;;;;;;;21.54;61.21;95186.25;1784962;80;21026;-65
2022/07/31 08:46:08;;;;;;;5.33;4.40;;;;;;;21.33;60.93;95190.75;1780549;80;21023;-65
2022/07/31 08:48:40;;;;;;;4.72;4.33;;;;;;;21.26;61.63;95179.19;1779440;81;20998;-65
2022/07/31 08:51:11;;;;;;;4.60;4.20;;;;;;;21.26;61.97;95183.22;1779535;80;20980;-65
2022/07/31 08:53:58;;;;;;;5.33;4.80;;;;;;;21.26;61.90;95185.90;1779202;81;21095;-65
2022/07/31 08:56:26;;;;;;;5.03;4.62;;;;;;;21.09;61.92;95188.36;1779217;81;21022;-65
2022/07/31 08:58:55;;;;;;;6.05;4.65;;;;;;;21.04;62.98;95181.98;1779234;81;21007;-65
2022/07/31 09:01:23;;;;;;;5.10;4.60;;;;;;;21.03;62.72;95182.08;1779314;81;21022;-65
2022/07/31 09:03:52;;;;;;;4.58;4.17;;;;;;;21.06;62.82;95177.35;1779273;81;21038;-65
2022/07/31 09:06:18;;;;;;;4.78;4.35;;;;;;;21.12;63.08;95168.91;1779375;81;21071;-65
2022/07/31 09:08:45;;;;;;;4.62;4.22;;;;;;;21.32;63.30;95168.06;1779418;80;21064;-65
2022/07/31 09:11:13;;;;;;;5.08;4.58;;;;;;;21.47;60.92;95163.48;1779321;81;21009;-65
2022/07/31 09:13:59;;;;;;;4.87;4.42;;;;;;;21.47;60.98;95163.48;1773935;81;21042;-65
2022/07/31 09:16:30;;;;;;;5.35;4.35;;;;;;;21.72;61.56;95163.53;1779085;81;20975;-66
2022/07/31 09:19:04;;;;;;;4.78;4.37;;;;;;;22.03;60.55;95148.80;1779121;81;21130;-65
2022/07/31 09:21:43;;;;;;;4.80;4.40;;;;;;;22.35;60.10;95154.20;1779572;81;20987;-65
2022/07/31 09:24:13;;;;;;;5.33;4.55;;;;;;;22.32;58.75;95152.59;1779494;80;21007;-65
2022/07/31 09:26:40;;;;;;;4.60;4.20;;;;;;;22.18;58.71;95158.09;1751342;81;21461;-65
2022/07/31 09:29:10;;;;;;;5.62;4.65;;;;;;;22.09;59.17;95163.61;1779552;81;21011;-65
2022/07/31 09:31:37;;;;;;;5.12;4.70;;;;;;;22.14;58.83;95164.64;1751338;81;21015;-65
2022/07/31 09:34:27;;;;;;;5.37;4.80;;;;;;;22.27;59.02;95152.55;1777258;81;21067;-65
2022/07/31 09:37:19;;;;;;;5.22;4.83;;;;;;;22.46;59.19;95150.27;1779505;81;21480;-65
2022/07/31 09:40:08;;;;;;;4.87;4.47;;;;;;;22.92;57.65;95156.78;1779250;81;21047;-65
2022/07/31 09:42:53;;;;;;;5.67;4.65;;;;;;;23.31;57.93;95148.94;1779433;81;21010;-65
2022/07/31 09:45:23;;;;;;;6.12;4.17;;;;;;;23.57;55.58;95140.69;1781495;80;21006;-65
2022/07/31 09:48:07;;;;;;;5.00;4.58;;;;;;;23.82;54.32;95145.06;1784954;80;21078;-65
2022/07/31 09:50:34;;;;;;;4.22;3.83;;;;;;;23.97;54.60;95147.89;1785204;80;21053;-65
2022/07/31 09:53:01;;;;;;;4.42;4.03;;;;;;;24.23;53.55;95155.25;1784955;80;21030;-65
2022/07/31 09:55:28;;;;;;;4.58;4.15;;;;;;;24.34;53.60;95163.36;1784952;80;21019;-65
2022/07/31 09:57:58;;;;;;;5.78;4.42;;;;;;;24.54;53.06;95162.25;1758847;80;21006;-65
2022/07/31 10:00:28;;;;;;;4.33;4.03;;;;;;;24.49;52.75;95166.66;1785081;80;21026;-65
2022/07/31 10:02:56;;;;;;;4.40;4.00;;;;;;;24.52;52.66;95163.75;1785100;80;20999;-65
2022/07/31 10:05:26;;;;;;;4.40;4.10;;;;;;;24.63;50.09;95147.18;1785018;80;21049;-65
2022/07/31 10:07:59;;;;;;;4.05;3.72;;;;;;;25.02;54.38;95157.41;1784761;80;21022;-65
2022/07/31 10:10:45;;;;;;;4.00;3.37;;;;;;;25.43;52.62;95155.80;1746649;80;21019;-65
2022/07/31 10:13:24;;;;;;;2.95;2.70;;;;;;;25.09;51.27;95155.53;1768081;80;21030;-65
2022/07/31 10:15:53;;;;;;;3.50;2.27;;;;;;;24.88;46.61;95159.52;1784906;80;21042;-65
2022/07/31 10:18:24;;;;;;;2.50;2.30;;;;;;;24.58;46.71;95148.89;1746540;80;21022;-65
2022/07/31 10:20:55;;;;;;;3.08;2.77;;;;;;;24.33;46.21;95159.42;1774971;80;21106;-66
2022/07/31 10:23:27;;;;;;;2.30;2.20;;;;;;;24.56;46.14;95161.15;1783774;80;21010;-65
2022/07/31 10:25:58;;;;;;;2.37;2.27;;;;;;;24.82;45.97;95159.05;1784836;80;20983;-65
2022/07/31 10:28:28;;;;;;;2.47;2.22;;;;;;;24.71;44.20;95157.70;1784989;80;20987;-65
2022/07/31 10:30:56;;;;;;;2.75;2.35;;;;;;;24.53;44.68;95167.30;1785291;80;21007;-65
2022/07/31 10:33:25;;;;;;;2.45;2.10;;;;;;;24.26;44.47;95160.89;1784923;80;21444;-65
2022/07/31 10:36:21;;;;;;;2.58;2.37;;;;;;;24.32;43.81;95167.16;1784975;80;21046;-65
2022/07/31 10:39:23;;;;;;;3.33;2.35;;;;;;;24.03;44.89;95166.75;1782830;80;21034;-65
2022/07/31 10:42:19;;;;;;;2.55;2.35;;;;;;;23.70;45.58;95167.88;1774774;80;21042;-65
2022/07/31 10:44:54;;;;;;;2.50;2.30;;;;;;;23.50;44.79;95177.49;1765672;80;21528;-65
2022/07/31 10:47:24;;;;;;;2.25;2.10;;;;;;;23.88;46.63;95176.89;1783758;80;21030;-65
2022/07/31 10:49:59;;;;;;;3.20;2.20;;;;;;;24.02;45.61;95165.91;1783860;80;21066;-65
2022/07/31 10:52:35;;;;;;;2.70;2.40;;;;;;;23.87;44.65;95181.92;1785157;80;21058;-65
2022/07/31 10:55:24;;;;;;;2.22;2.02;;;;;;;23.70;45.70;95180.50;1785104;80;21074;-65
2022/07/31 10:58:08;;;;;;;2.02;1.90;;;;;;;23.22;46.18;95184.12;1755725;80;21119;-65
2022/07/31 11:00:41;;;;;;;2.02;1.92;;;;;;;22.79;46.54;95190.45;1781275;80;21015;-65
2022/07/31 11:03:21;;;;;;;1.67;1.57;;;;;;;22.93;47.97;95187.62;1785202;80;20982;-65
2022/07/31 11:05:59;;;;;;;2.17;1.95;;;;;;;22.60;46.44;95180.17;1765671;80;21007;-65
2022/07/31 11:08:52;;;;;;;2.62;2.42;;;;;;;22.52;49.02;95185.25;1785103;80;21041;-65
2022/07/31 11:11:37;;;;;;;3.17;2.87;;;;;;;22.42;51.70;95191.28;1784783;80;21003;-65
2022/07/31 11:14:38;;;;;;;3.33;2.50;;;;;;;22.32;51.90;95193.40;1784731;80;21054;-65
2022/07/31 11:17:37;;;;;;;3.62;2.60;;;;;;;22.29;53.23;95190.94;1784738;80;21016;-65
2022/07/31 11:20:30;;;;;;;4.35;2.58;;;;;;;22.34;53.37;95192.81;1784748;80;21010;-65
2022/07/31 11:23:03;;;;;;;3.47;2.50;;;;;;;22.40;53.68;95186.98;1785025;80;20999;-65
2022/07/31 11:25:34;;;;;;;4.75;3.10;;;;;;;22.45;52.78;95183.02;1784891;80;21011;-65
2022/07/31 11:28:13;;;;;;;3.05;2.70;;;;;;;22.46;53.60;95182.03;1784981;80;20971;-65
2022/07/31 11:30:55;;;;;;;7.47;3.00;;;;;;;22.42;53.54;95186.39;1784892;80;21511;-65
2022/07/31 11:33:44;;;;;;;3.08;2.83;;;;;;;22.33;53.81;95187.08;1784961;80;21011;-65
2022/07/31 11:36:20;;;;;;;4.45;2.50;;;;;;;22.12;54.44;95183.54;1784867;80;21014;-65
2022/07/31 11:38:51;;;;;;;2.65;2.45;;;;;;;21.96;55.06;95185.11;1784899;80;21043;-65
2022/07/31 11:41:20;;;;;;;2.60;2.30;;;;;;;21.78;54.44;95192.63;1784865;80;21023;-64
2022/07/31 11:43:50;;;;;;;2.25;2.00;;;;;;;21.69;54.91;95199.97;1784845;80;21065;-65
2022/07/31 11:46:32;;;;;;;2.50;2.30;;;;;;;21.62;55.15;95198.70;1784492;80;21007;-65
2022/07/31 11:49:01;;;;;;;2.02;1.77;;;;;;;21.52;54.59;95197.58;1785054;80;21453;-65
2022/07/31 11:51:29;;;;;;;1.80;1.70;;;;;;;21.32;55.01;95201.61;1785091;80;21519;-65
2022/07/31 11:53:56;;;;;;;2.00;1.90;;;;;;;21.29;54.56;95205.36;1784702;80;21460;-65
2022/07/31 11:56:25;;;;;;;2.60;2.40;;;;;;;21.27;55.75;95206.39;1784536;80;21547;-64
2022/07/31 11:58:55;;;;;;;2.60;2.40;;;;;;;21.23;56.44;95203.06;1784864;80;21038;-65
2022/07/31 12:01:28;;;;;;;2.65;2.27;;;;;;;21.10;57.69;95207.53;1785075;80;21014;-65
2022/07/31 12:03:57;;;;;;;4.50;2.70;;;;;;;21.03;58.13;95206.22;1785015;80;21018;-65
2022/07/31 12:06:23;;;;;;;2.80;2.60;;;;;;;20.92;57.97;95215.83;1785068;80;21011;-65
2022/07/31 12:08:51;;;;;;;2.90;2.70;;;;;;;20.80;59.33;95220.64;1784481;80;21022;-65
2022/07/31 12:11:19;;;;;;;2.83;2.50;;;;;;;20.73;59.93;95223.34;1784964;80;21457;-65